createdAt,value
2023-01-26T00:01:51.439Z,119.00
2023-01-26T00:04:20.799Z,123.03
2023-01-26T00:06:48.923Z,120.80
2023-01-26T00:09:16.770Z,124.97
2023-01-26T00:11:44.748Z,122.37
2023-01-26T00:14:12.766Z,121.63
2023-01-26T00:16:40.976Z,126.77
2023-01-26T00:19:09.617Z,117.20
2023-01-26T00:21:39.060Z,126.63
2023-01-26T00:24:07.672Z,123.63
2023-01-26T00:26:35.689Z,125.73
2023-01-26T00:29:03.680Z,120.47
2023-01-26T00:31:31.752Z,123.50
2023-01-26T00:34:00.745Z,129.23
2023-01-26T00:36:28.695Z,114.93
2023-01-26T00:38:58.139Z,119.10
2023-01-26T00:41:43.378Z,127.67
2023-01-26T00:44:11.357Z,125.43
2023-01-26T00:46:39.446Z,124.03
2023-01-26T00:49:08.326Z,122.27
2023-01-26T00:51:36.291Z,116.27
2023-01-26T00:54:06.994Z,124.60
2023-01-26T00:56:35.079Z,121.30
2023-01-26T00:59:03.107Z,123.53
2023-01-26T01:01:31.136Z,122.30
2023-01-26T01:03:59.286Z,120.47
2023-01-26T01:06:27.747Z,113.93
2023-01-26T01:08:55.821Z,118.10
2023-01-26T01:11:25.246Z,119.13
2023-01-26T01:13:53.311Z,117.83
2023-01-26T01:16:21.708Z,119.93
2023-01-26T01:18:50.113Z,110.67
2023-01-26T01:21:18.942Z,113.03
2023-01-26T01:23:47.542Z,115.13
2023-01-26T01:26:16.370Z,109.13
2023-01-26T01:28:46.424Z,112.00
2023-01-26T01:31:15.969Z,110.00
2023-01-26T01:33:44.455Z,106.00
2023-01-26T01:36:17.750Z,115.13
2023-01-26T01:38:47.064Z,108.83
2023-01-26T01:41:16.526Z,102.70
2023-01-26T01:43:46.490Z,102.00
2023-01-26T01:46:23.881Z,103.43
2023-01-26T01:48:55.013Z,106.03
2023-01-26T01:51:30.858Z,96.93
2023-01-26T01:54:04.542Z,94.83
2023-01-26T01:56:35.209Z,94.50
2023-01-26T01:59:06.721Z,95.47
2023-01-26T02:01:34.822Z,104.53
2023-01-26T02:04:07.159Z,95.17
2023-01-26T02:06:46.135Z,96.63
2023-01-26T02:09:34.623Z,95.67
2023-01-26T02:12:04.581Z,86.13
2023-01-26T02:14:34.647Z,93.90
2023-01-26T02:17:02.798Z,85.83
2023-01-26T02:19:38.494Z,86.23
2023-01-26T02:22:12.024Z,90.30
2023-01-26T02:24:41.487Z,92.57
2023-01-26T02:27:10.890Z,88.70
2023-01-26T02:29:39.098Z,89.77
2023-01-26T02:32:07.633Z,94.60
2023-01-26T02:34:35.915Z,90.77
2023-01-26T02:37:04.153Z,95.30
2023-01-26T02:39:45.351Z,88.97
2023-01-26T02:42:32.530Z,93.30
2023-01-26T02:45:01.089Z,87.37
2023-01-26T02:47:30.785Z,81.73
2023-01-26T02:49:58.796Z,85.10
2023-01-26T02:52:30.900Z,84.97
2023-01-26T02:55:20.395Z,85.03
2023-01-26T02:57:50.922Z,83.90
2023-01-26T03:00:20.700Z,86.07
2023-01-26T03:02:52.188Z,82.97
2023-01-26T03:05:20.639Z,86.20
2023-01-26T03:07:48.996Z,79.07
2023-01-26T03:10:18.344Z,90.93
2023-01-26T03:12:46.973Z,90.57
2023-01-26T03:15:33.944Z,83.60
2023-01-26T03:18:23.746Z,81.50
2023-01-26T03:21:09.087Z,86.23
2023-01-26T03:23:54.498Z,86.77
2023-01-26T03:26:41.689Z,77.57
2023-01-26T03:29:09.965Z,85.10
2023-01-26T03:31:40.632Z,88.23
2023-01-26T03:34:08.871Z,85.87
2023-01-26T03:36:38.037Z,85.20
2023-01-26T03:39:30.458Z,85.00
2023-01-26T03:42:15.819Z,89.47
2023-01-26T03:45:01.427Z,90.43
2023-01-26T03:47:50.233Z,102.77
2023-01-26T03:50:35.749Z,90.43
2023-01-26T03:53:21.240Z,96.60
2023-01-26T03:56:06.714Z,87.50
2023-01-26T03:58:35.067Z,96.67
2023-01-26T04:01:02.995Z,91.43
2023-01-26T04:03:49.918Z,97.83
2023-01-26T04:06:35.404Z,91.13
2023-01-26T04:09:03.833Z,97.43
2023-01-26T04:11:32.135Z,89.57
2023-01-26T04:14:17.501Z,93.13
2023-01-26T04:17:03.239Z,99.93
2023-01-26T04:19:50.285Z,90.27
2023-01-26T04:22:18.526Z,85.50
2023-01-26T04:24:49.015Z,91.63
2023-01-26T04:27:17.014Z,77.10
2023-01-26T04:29:44.965Z,82.23
2023-01-26T04:32:13.202Z,77.00
2023-01-26T04:34:43.424Z,76.97
2023-01-26T04:37:20.458Z,81.40
2023-01-26T04:39:49.212Z,80.57
2023-01-26T04:42:18.447Z,80.93
2023-01-26T04:44:46.490Z,87.57
2023-01-26T04:47:15.532Z,84.40
2023-01-26T04:49:45.779Z,74.20
2023-01-26T04:52:18.505Z,84.47
2023-01-26T04:54:46.601Z,85.73
2023-01-26T04:57:15.111Z,81.77
2023-01-26T04:59:47.457Z,76.00
2023-01-26T05:02:15.720Z,80.17
2023-01-26T05:04:45.166Z,77.60
2023-01-26T05:07:13.965Z,77.50
2023-01-26T05:09:42.067Z,80.17
2023-01-26T05:12:35.079Z,81.03
2023-01-26T05:15:21.534Z,76.40
2023-01-26T05:18:00.115Z,74.93
2023-01-26T05:20:39.543Z,78.03
2023-01-26T05:23:16.870Z,79.50
2023-01-26T05:26:04.037Z,76.10
2023-01-26T05:28:38.291Z,79.80
2023-01-26T05:31:06.556Z,75.57
2023-01-26T05:33:34.946Z,73.73
2023-01-26T05:36:08.346Z,74.07
2023-01-26T05:38:36.859Z,76.37
2023-01-26T05:41:05.305Z,73.50
2023-01-26T05:43:43.217Z,73.90
2023-01-26T05:46:31.291Z,75.80
2023-01-26T05:48:59.315Z,77.93
2023-01-26T05:51:28.685Z,72.77
2023-01-26T05:53:57.040Z,71.13
2023-01-26T05:56:26.155Z,65.70
2023-01-26T05:59:00.027Z,69.33
2023-01-26T06:01:28.248Z,67.23
2023-01-26T06:04:00.884Z,63.57
2023-01-26T06:06:37.783Z,62.13
2023-01-26T06:09:38.171Z,64.33
2023-01-26T06:12:25.250Z,60.13
2023-01-26T06:14:53.396Z,62.83
2023-01-26T06:17:21.368Z,59.57
2023-01-26T06:19:54.399Z,60.10
2023-01-26T06:22:24.047Z,59.30
2023-01-26T06:24:53.077Z,55.13
2023-01-26T06:27:21.861Z,55.80
2023-01-26T06:29:51.993Z,60.60
2023-01-26T06:32:20.229Z,60.17
2023-01-26T06:34:53.909Z,61.27
2023-01-26T06:37:24.605Z,58.87
2023-01-26T06:39:53.720Z,60.20
2023-01-26T06:42:21.672Z,62.23
2023-01-26T06:44:49.713Z,59.83
2023-01-26T06:47:18.235Z,58.70
2023-01-26T06:49:46.566Z,56.63
2023-01-26T06:52:32.661Z,58.50
2023-01-26T06:55:18.216Z,56.40
2023-01-26T06:57:52.658Z,55.23
2023-01-26T07:00:39.829Z,56.77
2023-01-26T07:03:26.608Z,59.93
2023-01-26T07:05:54.564Z,56.70
2023-01-26T07:08:23.988Z,55.40
2023-01-26T07:10:52.480Z,56.10
2023-01-26T07:13:21.261Z,52.33
2023-01-26T07:15:49.227Z,57.20
2023-01-26T07:18:17.099Z,55.50
2023-01-26T07:20:45.021Z,57.30
2023-01-26T07:23:13.076Z,56.00
2023-01-26T07:25:45.760Z,52.97
2023-01-26T07:28:13.778Z,56.00
2023-01-26T07:30:42.129Z,53.37
2023-01-26T07:33:10.295Z,55.80
2023-01-26T07:35:38.648Z,56.30
2023-01-26T07:38:06.837Z,56.40
2023-01-26T07:40:35.260Z,58.77
2023-01-26T07:43:04.944Z,55.90
2023-01-26T07:45:51.351Z,55.90
2023-01-26T07:48:19.840Z,54.97
2023-01-26T07:50:48.632Z,58.33
2023-01-26T07:53:19.357Z,57.43
2023-01-26T07:55:48.039Z,53.67
2023-01-26T07:58:18.545Z,55.27
2023-01-26T08:00:47.946Z,55.47
2023-01-26T08:03:16.200Z,54.43
2023-01-26T08:05:44.520Z,59.17
2023-01-26T08:08:12.680Z,58.03
2023-01-26T08:10:40.762Z,63.83
2023-01-26T08:13:08.885Z,60.90
2023-01-26T08:15:38.301Z,61.20
2023-01-26T08:18:06.274Z,63.57
2023-01-26T08:20:35.367Z,61.80
2023-01-26T08:23:03.338Z,57.43
2023-01-26T08:25:32.975Z,61.07
2023-01-26T08:28:00.993Z,57.73
2023-01-26T08:30:29.301Z,52.63
2023-01-26T08:32:59.202Z,58.87
2023-01-26T08:35:27.234Z,56.67
2023-01-26T08:37:55.224Z,57.63
2023-01-26T08:40:24.718Z,53.77
2023-01-26T08:42:53.087Z,55.10
2023-01-26T08:45:21.780Z,57.10
2023-01-26T08:47:51.229Z,57.43
2023-01-26T08:50:20.690Z,58.20
2023-01-26T08:52:48.657Z,54.70
2023-01-26T08:55:17.002Z,57.27
2023-01-26T08:57:45.308Z,57.90
2023-01-26T09:00:14.790Z,56.53
2023-01-26T09:02:42.881Z,59.30
2023-01-26T09:05:11.359Z,55.47
2023-01-26T09:07:40.666Z,62.53
2023-01-26T09:10:10.775Z,59.77
2023-01-26T09:12:40.966Z,61.50
2023-01-26T09:15:10.355Z,57.83
2023-01-26T09:17:38.652Z,56.70
2023-01-26T09:20:08.687Z,55.10
2023-01-26T09:22:36.717Z,60.33
2023-01-26T09:25:07.067Z,57.53
2023-01-26T09:27:35.001Z,56.40
2023-01-26T09:30:03.350Z,55.67
2023-01-26T09:32:31.448Z,52.77
2023-01-26T09:34:59.483Z,48.67
2023-01-26T09:37:27.497Z,53.00
2023-01-26T09:39:55.507Z,51.13
2023-01-26T09:42:37.202Z,48.20
2023-01-26T09:45:23.917Z,44.53
2023-01-26T09:48:04.191Z,46.67
2023-01-26T09:50:39.370Z,45.73
2023-01-26T09:53:13.296Z,51.03
2023-01-26T09:55:42.832Z,46.80
2023-01-26T09:58:16.920Z,44.37
2023-01-26T10:00:48.486Z,42.07
2023-01-26T10:03:26.016Z,48.07
2023-01-26T10:06:00.691Z,39.07
2023-01-26T10:08:47.120Z,41.83
2023-01-26T10:11:20.849Z,43.00
2023-01-26T10:13:56.470Z,47.10
2023-01-26T10:16:25.364Z,41.47
2023-01-26T10:19:00.191Z,40.03
2023-01-26T10:21:34.536Z,38.10
2023-01-26T10:24:05.853Z,40.13
2023-01-26T10:26:35.240Z,41.07
2023-01-26T10:29:07.852Z,35.40
2023-01-26T10:31:36.130Z,30.00
2023-01-26T10:34:15.386Z,27.30
2023-01-26T10:36:46.517Z,29.57
2023-01-26T10:39:16.971Z,28.43
2023-01-26T10:42:00.906Z,27.57
2023-01-26T10:44:36.568Z,29.00
2023-01-26T10:47:18.701Z,28.37
2023-01-26T10:49:47.173Z,30.37
2023-01-26T10:52:21.912Z,33.10
2023-01-26T10:54:51.868Z,29.10
2023-01-26T10:57:28.285Z,32.87
2023-01-26T11:00:00.289Z,29.20
2023-01-26T11:02:30.231Z,26.57
2023-01-26T11:05:21.409Z,28.10
2023-01-26T11:07:51.350Z,25.70
2023-01-26T11:10:29.020Z,28.07
2023-01-26T11:13:24.313Z,29.80
2023-01-26T11:16:04.789Z,29.17
2023-01-26T11:18:48.343Z,26.20
2023-01-26T11:21:24.508Z,25.73
2023-01-26T11:24:01.754Z,30.43
2023-01-26T11:26:58.473Z,29.57
2023-01-26T11:29:42.903Z,24.37
2023-01-26T11:32:25.657Z,25.37
2023-01-26T11:35:05.839Z,25.60
2023-01-26T11:37:46.328Z,25.17
2023-01-26T11:40:33.612Z,22.83
2023-01-26T11:43:35.104Z,25.40
2023-01-26T11:46:16.594Z,27.50
2023-01-26T11:48:57.912Z,23.47
2023-01-26T11:51:42.996Z,21.03
2023-01-26T11:54:23.928Z,23.50
2023-01-26T11:57:04.834Z,25.50
2023-01-26T11:59:37.569Z,25.23
2023-01-26T12:02:16.022Z,30.13
2023-01-26T12:04:48.186Z,24.53
2023-01-26T12:07:22.466Z,24.80
2023-01-26T12:09:53.182Z,27.70
2023-01-26T12:12:28.943Z,24.27
2023-01-26T12:15:06.017Z,20.40
2023-01-26T12:17:49.371Z,22.73
2023-01-26T12:20:28.938Z,26.43
2023-01-26T12:23:05.065Z,21.10
2023-01-26T12:25:36.259Z,20.63
2023-01-26T12:28:18.696Z,20.33
2023-01-26T12:30:53.250Z,18.23
2023-01-26T12:33:21.708Z,18.60
2023-01-26T12:36:17.025Z,20.73
2023-01-26T12:39:01.746Z,21.23
2023-01-26T12:41:39.706Z,18.97
2023-01-26T12:44:23.110Z,18.17
2023-01-26T12:46:56.194Z,16.77
2023-01-26T12:49:30.641Z,17.67
2023-01-26T12:52:08.974Z,17.47
2023-01-26T12:54:45.174Z,22.70
2023-01-26T12:57:18.273Z,20.17
2023-01-26T12:59:48.889Z,20.50
2023-01-26T13:02:26.889Z,26.30
2023-01-26T13:04:58.378Z,22.27
2023-01-26T13:07:34.910Z,27.03
2023-01-26T13:10:20.958Z,25.10
2023-01-26T13:12:51.429Z,22.70
2023-01-26T13:15:21.615Z,25.67
2023-01-26T13:17:59.148Z,27.30
2023-01-26T13:20:46.981Z,30.10
2023-01-26T13:23:43.062Z,35.07
2023-01-26T13:26:24.939Z,34.27
2023-01-26T13:28:54.642Z,30.13
2023-01-26T13:31:34.107Z,35.40
2023-01-26T13:34:09.081Z,34.37
2023-01-26T13:36:40.272Z,40.83
2023-01-26T13:39:20.053Z,43.17
2023-01-26T13:41:49.194Z,42.83
2023-01-26T13:44:23.006Z,45.27
2023-01-26T13:46:56.901Z,43.30
2023-01-26T13:49:26.739Z,42.70
2023-01-26T13:51:55.143Z,54.33
2023-01-26T13:54:28.063Z,59.60
2023-01-26T13:57:05.075Z,63.30
2023-01-26T13:59:34.615Z,63.13
2023-01-26T14:02:03.107Z,70.13
2023-01-26T14:04:32.794Z,73.37
2023-01-26T14:07:07.106Z,68.80
2023-01-26T14:09:46.798Z,82.00
2023-01-26T14:12:22.031Z,83.50
2023-01-26T14:14:52.651Z,84.33
2023-01-26T14:17:31.566Z,86.07
2023-01-26T14:20:03.559Z,86.13
2023-01-26T14:22:32.036Z,79.80
2023-01-26T14:25:01.574Z,83.97
2023-01-26T14:27:37.607Z,87.10
2023-01-26T14:30:23.181Z,76.47
2023-01-26T14:32:57.951Z,67.03
2023-01-26T14:35:26.834Z,61.07
2023-01-26T14:38:07.674Z,62.90
2023-01-26T14:40:38.036Z,54.07
2023-01-26T14:43:06.883Z,47.63
2023-01-26T14:45:35.544Z,55.27
2023-01-26T14:48:08.300Z,53.03
2023-01-26T14:50:41.381Z,42.07
2023-01-26T14:53:18.922Z,43.83
2023-01-26T14:55:50.005Z,48.37
2023-01-26T14:58:24.143Z,48.20
2023-01-26T15:00:55.278Z,50.10
2023-01-26T15:03:28.156Z,40.57
2023-01-26T15:06:20.453Z,48.67
2023-01-26T15:09:01.191Z,42.33
2023-01-26T15:11:52.333Z,51.40
2023-01-26T15:14:35.646Z,49.47
2023-01-26T15:17:04.524Z,48.93
2023-01-26T15:19:39.369Z,46.77
2023-01-26T15:22:17.852Z,49.13
2023-01-26T15:24:48.399Z,49.13
2023-01-26T15:27:17.893Z,46.53
2023-01-26T15:29:45.904Z,43.40
2023-01-26T15:32:29.719Z,44.20
2023-01-26T15:35:09.554Z,40.30
2023-01-26T15:37:37.679Z,40.30
2023-01-26T15:40:06.755Z,44.13
2023-01-26T15:42:36.424Z,47.57
2023-01-26T15:45:05.007Z,44.63
2023-01-26T15:47:32.932Z,39.07
2023-01-26T15:50:00.979Z,41.53
2023-01-26T15:52:31.306Z,36.10
2023-01-26T15:54:59.341Z,43.23
2023-01-26T15:57:27.359Z,39.37
2023-01-26T15:59:56.796Z,38.17
2023-01-26T16:02:24.792Z,45.43
2023-01-26T16:04:52.943Z,41.57
2023-01-26T16:07:21.023Z,38.37
2023-01-26T16:09:51.058Z,37.97
2023-01-26T16:12:31.203Z,42.10
2023-01-26T16:15:02.278Z,43.60
2023-01-26T16:17:30.791Z,43.90
2023-01-26T16:20:00.289Z,41.23
2023-01-26T16:22:28.255Z,39.60
2023-01-26T16:24:56.239Z,38.23
2023-01-26T16:27:24.256Z,37.13
2023-01-26T16:29:52.460Z,36.80
2023-01-26T16:32:28.389Z,37.13
2023-01-26T16:34:56.377Z,36.70
2023-01-26T16:37:24.345Z,35.10
2023-01-26T16:39:52.398Z,45.97
2023-01-26T16:42:22.435Z,38.70
2023-01-26T16:44:50.540Z,39.70
2023-01-26T16:47:18.517Z,41.53
2023-01-26T16:49:47.943Z,41.80
2023-01-26T16:52:16.080Z,40.87
2023-01-26T16:54:45.694Z,38.83
2023-01-26T16:57:13.699Z,41.40
2023-01-26T16:59:41.754Z,35.73
2023-01-26T17:02:24.477Z,37.40
2023-01-26T17:04:54.127Z,40.10
2023-01-26T17:07:22.194Z,36.97
2023-01-26T17:09:50.761Z,39.07
2023-01-26T17:12:18.946Z,34.77
2023-01-26T17:14:46.911Z,35.03
2023-01-26T17:17:15.005Z,32.00
2023-01-26T17:19:43.143Z,41.17
2023-01-26T17:22:12.914Z,36.00
2023-01-26T17:24:42.785Z,40.83
2023-01-26T17:27:12.055Z,36.67
2023-01-26T17:29:42.244Z,37.47
2023-01-26T17:32:10.235Z,36.17
2023-01-26T17:34:38.231Z,38.93
2023-01-26T17:37:06.162Z,34.37
2023-01-26T17:39:36.026Z,37.97
2023-01-26T17:42:03.933Z,37.27
2023-01-26T17:44:32.114Z,35.40
2023-01-26T17:47:00.606Z,31.10
2023-01-26T17:49:28.599Z,36.73
2023-01-26T17:51:56.459Z,34.17
2023-01-26T17:54:24.686Z,34.70
2023-01-26T17:56:54.883Z,41.40
2023-01-26T17:59:23.365Z,35.20
2023-01-26T18:01:51.664Z,36.47
2023-01-26T18:04:19.914Z,35.00
2023-01-26T18:06:47.855Z,38.63
2023-01-26T18:09:15.992Z,36.50
2023-01-26T18:11:43.935Z,35.57
2023-01-26T18:14:13.326Z,33.80
2023-01-26T18:16:41.365Z,33.13
2023-01-26T18:19:09.343Z,34.57
2023-01-26T18:21:37.350Z,33.80
2023-01-26T18:24:07.168Z,35.70
2023-01-26T18:26:37.853Z,33.27
2023-01-26T18:29:07.089Z,33.00
2023-01-26T18:31:40.571Z,28.40
2023-01-26T18:34:09.104Z,32.70
2023-01-26T18:36:37.045Z,35.87
2023-01-26T18:39:07.131Z,32.97
2023-01-26T18:41:35.855Z,32.80
2023-01-26T18:44:04.295Z,33.20
2023-01-26T18:46:32.521Z,31.13
2023-01-26T18:49:03.458Z,30.30
2023-01-26T18:51:33.439Z,29.97
2023-01-26T18:54:03.843Z,35.17
2023-01-26T18:56:32.410Z,33.20
2023-01-26T18:59:00.761Z,30.77
2023-01-26T19:01:28.907Z,26.77
2023-01-26T19:03:58.120Z,28.53
2023-01-26T19:06:30.948Z,29.33
2023-01-26T19:09:01.396Z,33.83
2023-01-26T19:11:31.173Z,30.87
2023-01-26T19:13:59.517Z,31.37
2023-01-26T19:16:28.179Z,28.10
2023-01-26T19:18:56.748Z,31.37
2023-01-26T19:21:27.832Z,30.80
2023-01-26T19:23:58.420Z,28.60
2023-01-26T19:26:29.783Z,30.33
2023-01-26T19:28:58.007Z,29.90
2023-01-26T19:31:26.747Z,28.00
2023-01-26T19:33:56.268Z,28.77
2023-01-26T19:36:24.802Z,24.50
2023-01-26T19:38:54.551Z,24.83
2023-01-26T19:41:23.986Z,28.80
2023-01-26T19:43:52.312Z,28.57
2023-01-26T19:46:21.188Z,22.80
2023-01-26T19:48:49.406Z,24.87
2023-01-26T19:51:19.567Z,21.93
2023-01-26T19:53:49.606Z,22.07
2023-01-26T19:56:20.789Z,19.63
2023-01-26T19:58:51.097Z,21.43
2023-01-26T20:01:19.624Z,18.37
2023-01-26T20:03:50.846Z,21.53
2023-01-26T20:06:20.716Z,18.57
2023-01-26T20:08:49.336Z,18.97
2023-01-26T20:11:19.790Z,14.80
2023-01-26T20:13:47.833Z,13.37
2023-01-26T20:16:15.774Z,11.60
2023-01-26T20:18:43.992Z,12.67
2023-01-26T20:21:11.880Z,12.30
2023-01-26T20:23:53.406Z,14.10
2023-01-26T20:26:24.518Z,13.63
2023-01-26T20:28:54.011Z,14.43
2023-01-26T20:31:24.664Z,12.60
2023-01-26T20:33:53.583Z,10.13
2023-01-26T20:36:24.227Z,14.17
2023-01-26T20:38:52.658Z,8.57
2023-01-26T20:41:24.250Z,10.50
2023-01-26T20:43:59.731Z,11.00
2023-01-26T20:46:30.582Z,6.97
2023-01-26T20:48:58.814Z,12.13
2023-01-26T20:51:30.447Z,9.47
2023-01-26T20:53:59.081Z,11.17
2023-01-26T20:56:28.615Z,9.03
2023-01-26T20:58:57.139Z,11.37
2023-01-26T21:01:26.425Z,15.47
2023-01-26T21:03:55.287Z,10.50
2023-01-26T21:06:24.376Z,13.53
2023-01-26T21:08:55.229Z,11.80
2023-01-26T21:11:25.516Z,11.80
2023-01-26T21:13:56.037Z,12.50
2023-01-26T21:16:24.771Z,10.27
2023-01-26T21:18:53.121Z,10.83
2023-01-26T21:21:21.934Z,12.90
2023-01-26T21:23:50.310Z,11.60
2023-01-26T21:26:22.240Z,11.10
2023-01-26T21:28:51.962Z,16.67
2023-01-26T21:31:22.767Z,8.73
2023-01-26T21:33:51.334Z,11.17
2023-01-26T21:36:21.176Z,8.67
2023-01-26T21:38:52.121Z,14.00
2023-01-26T21:41:39.360Z,11.40
2023-01-26T21:44:09.058Z,10.27
2023-01-26T21:46:39.067Z,11.20
2023-01-26T21:49:07.120Z,12.70
2023-01-26T21:51:52.943Z,11.57
2023-01-26T21:54:20.876Z,10.03
2023-01-26T21:56:49.007Z,10.60
2023-01-26T21:59:17.786Z,17.53
2023-01-26T22:01:48.564Z,9.50
2023-01-26T22:04:18.727Z,8.47
2023-01-26T22:06:46.848Z,11.20
2023-01-26T22:09:16.567Z,10.47
2023-01-26T22:11:44.637Z,9.17
2023-01-26T22:14:16.531Z,13.53
2023-01-26T22:16:44.876Z,12.00
2023-01-26T22:19:14.903Z,13.53
2023-01-26T22:21:43.230Z,12.90
2023-01-26T22:24:13.402Z,8.93
2023-01-26T22:26:42.076Z,9.47
2023-01-26T22:29:12.400Z,12.53
2023-01-26T22:31:41.970Z,10.27
2023-01-26T22:34:12.917Z,13.27
2023-01-26T22:36:42.781Z,11.73
2023-01-26T22:39:12.265Z,11.83
2023-01-26T22:41:40.376Z,13.57
2023-01-26T22:44:08.425Z,11.37
2023-01-26T22:46:36.818Z,8.87
2023-01-26T22:49:05.906Z,8.97
2023-01-26T22:51:37.733Z,8.13
2023-01-26T22:54:07.164Z,7.20
2023-01-26T22:56:35.237Z,7.73
2023-01-26T22:59:03.519Z,9.23
2023-01-26T23:01:33.399Z,10.57
2023-01-26T23:04:02.340Z,9.03
2023-01-26T23:06:31.158Z,9.10
2023-01-26T23:09:01.093Z,8.97
2023-01-26T23:11:31.047Z,9.43
2023-01-26T23:14:00.170Z,5.93
2023-01-26T23:16:29.265Z,6.00
2023-01-26T23:18:59.417Z,6.20
2023-01-26T23:21:28.341Z,8.00
2023-01-26T23:23:56.317Z,6.37
2023-01-26T23:26:24.383Z,8.80
2023-01-26T23:28:53.886Z,5.73
2023-01-26T23:31:21.870Z,9.00
2023-01-26T23:33:50.001Z,8.07
2023-01-26T23:36:18.841Z,7.40
2023-01-26T23:38:46.907Z,5.90
2023-01-26T23:41:14.854Z,6.30
2023-01-26T23:43:43.319Z,8.03
2023-01-26T23:46:13.897Z,6.13
2023-01-26T23:48:42.013Z,6.27
2023-01-26T23:51:12.149Z,6.20
2023-01-26T23:53:40.529Z,4.50
2023-01-26T23:56:11.344Z,8.87
2023-01-26T23:58:39.293Z,5.20
